Terminal Aerodrome Forecast
Issued by NWS

Home | Current Version | Previous Version | Text Only | Print | Product List | Glossary On
Versions: 1 2 3 4 5 6 7 8 9 10 11 12 13 14 15 16 17 18 19
000
FTUS46 KMFR 201157 AAA
TAFLMT
TAF AMD
KLMT 201157Z 2012/2112 16009KT P6SM -RA OVC025 WS020/22035KT
     FM201500 18012G20KT P6SM -RA OVC025
     FM202100 20012G20KT P6SM -RA OVC015
     FM210300 20009KT 6SM -RA OVC025=

USA.gov is the U.S. government's official web portal to all federal, state and local government web resources and services.